Crescent City, California
Current Conditions -  °F | °C
As of 9:56 PM on Sunday 23 Nov 2014 (Local Time) from KCEC Reporting Station
Clear Clear  
Wind Chill: 42°   Ceiling: Unl
Heat Index: 45°   Visibility: 10mi
Dew Point: 43°   Wind: 6mph
Humidity: 93%   Direction: 110°ESE
Pressure: 30.37"   Gusts: NA
Location:  41.74°N, 124.16°W
Report Text: KCEC 240556Z AUTO 11005KT 10SM CLR 07/06 A3037 RMK AO2 SLP284 T00720061 10128 20067 53004
Loading
Personal Weather Stations






























Interactive Weather Map New forecast layout! Learn more

10-Day Weather Forecast

Advertisements
Track Severe Weather on mobile